createdAt,value
2022-12-26T00:00:26.042Z,9.719312
2022-12-26T00:01:26.020Z,9.719229
2022-12-26T00:02:26.021Z,9.719183
2022-12-26T00:03:26.069Z,9.719378
2022-12-26T00:04:49.910Z,9.719294
2022-12-26T00:05:26.965Z,9.719157
2022-12-26T00:06:25.980Z,9.719166
2022-12-26T00:07:25.951Z,9.719229
2022-12-26T00:08:25.959Z,9.719234
2022-12-26T00:09:25.951Z,9.719285
2022-12-26T00:10:25.928Z,9.719249
2022-12-26T00:11:25.917Z,9.719248
2022-12-26T00:12:25.957Z,9.719316
2022-12-26T00:13:39.789Z,9.719358
2022-12-26T00:14:26.897Z,9.719433
2022-12-26T00:15:25.890Z,9.719337
2022-12-26T00:16:25.923Z,9.719432
2022-12-26T00:17:25.850Z,9.719548
2022-12-26T00:18:25.842Z,9.720499
2022-12-26T00:19:25.861Z,9.720395
2022-12-26T00:20:25.846Z,9.719472
2022-12-26T00:21:25.844Z,9.719111
2022-12-26T00:22:25.840Z,9.718872
2022-12-26T00:23:25.792Z,9.719277
2022-12-26T00:24:25.795Z,9.719292
2022-12-26T00:25:25.859Z,9.719054
2022-12-26T00:26:25.802Z,9.719118
2022-12-26T00:27:25.782Z,9.719137
2022-12-26T00:28:25.759Z,9.719033
2022-12-26T00:29:25.728Z,9.718888
2022-12-26T00:30:25.738Z,9.718850
2022-12-26T00:31:25.806Z,9.719231
2022-12-26T00:32:25.724Z,9.719353
2022-12-26T00:33:25.706Z,9.719748
2022-12-26T00:34:25.692Z,9.718977
2022-12-26T00:35:25.685Z,9.719225
2022-12-26T00:36:25.682Z,9.719419
2022-12-26T00:37:25.688Z,9.719349
2022-12-26T00:38:25.655Z,9.719393
2022-12-26T00:39:25.642Z,9.719463
2022-12-26T00:40:25.616Z,9.719215
2022-12-26T00:41:25.691Z,9.719315
2022-12-26T00:42:25.628Z,9.719269
2022-12-26T00:43:25.608Z,9.719576
2022-12-26T00:44:25.591Z,9.719323
2022-12-26T00:45:25.596Z,9.719331
2022-12-26T00:46:25.602Z,9.719344
2022-12-26T00:47:25.583Z,9.719831
2022-12-26T00:48:25.557Z,9.719482
2022-12-26T00:49:25.541Z,9.719234
2022-12-26T00:50:29.578Z,9.719244
2022-12-26T00:51:27.511Z,9.719378
2022-12-26T00:52:25.515Z,9.719440
2022-12-26T00:53:26.629Z,9.719460
2022-12-26T00:54:25.485Z,9.719300
2022-12-26T00:55:25.481Z,9.719247
2022-12-26T00:56:25.479Z,9.719194
2022-12-26T00:57:25.489Z,9.719244
2022-12-26T00:58:25.462Z,9.719418
2022-12-26T00:59:25.439Z,9.719439
2022-12-26T01:00:25.438Z,9.719398
2022-12-26T01:01:25.711Z,9.719335
2022-12-26T01:02:25.594Z,9.719280
2022-12-26T01:03:25.450Z,9.719248
2022-12-26T01:04:25.395Z,9.719285
2022-12-26T01:05:25.382Z,9.719244
2022-12-26T01:06:25.409Z,9.719153
2022-12-26T01:07:25.360Z,9.719299
2022-12-26T01:08:25.369Z,9.719324
2022-12-26T01:09:25.370Z,9.719331
2022-12-26T01:10:25.328Z,9.719406
2022-12-26T01:11:25.318Z,9.719481
2022-12-26T01:12:25.335Z,9.719426
2022-12-26T01:13:25.304Z,9.719464
2022-12-26T01:14:25.316Z,9.719414
2022-12-26T01:15:25.286Z,9.719330
2022-12-26T01:16:25.309Z,9.719254
2022-12-26T01:17:25.262Z,9.719376
2022-12-26T01:18:25.263Z,9.719378
2022-12-26T01:19:25.256Z,9.719388
2022-12-26T01:20:25.244Z,9.719299
2022-12-26T01:21:25.247Z,9.719373
2022-12-26T01:22:25.221Z,9.719365
2022-12-26T01:23:25.209Z,9.719357
2022-12-26T01:24:57.096Z,9.719337
2022-12-26T01:25:25.172Z,9.719378
2022-12-26T01:26:25.212Z,9.719380
2022-12-26T01:27:25.150Z,9.719415
2022-12-26T01:28:25.149Z,9.719415
2022-12-26T01:29:25.140Z,9.719325
2022-12-26T01:30:25.156Z,9.719281
2022-12-26T01:31:25.211Z,9.719265
2022-12-26T01:32:25.119Z,9.719281
2022-12-26T01:33:25.095Z,9.719307
2022-12-26T01:34:25.087Z,9.719352
2022-12-26T01:35:25.079Z,9.719354
2022-12-26T01:36:25.110Z,9.719282
2022-12-26T01:37:25.067Z,9.719234
2022-12-26T01:38:25.047Z,9.719305
2022-12-26T01:39:25.043Z,9.719353
2022-12-26T01:40:25.032Z,9.719477
2022-12-26T01:41:25.040Z,9.719417
2022-12-26T01:42:25.062Z,9.719366
2022-12-26T01:43:24.992Z,9.719281
2022-12-26T01:44:24.994Z,9.719401
2022-12-26T01:45:25.046Z,9.719364
2022-12-26T01:46:25.047Z,9.719323
2022-12-26T01:47:24.983Z,9.719596
2022-12-26T01:48:24.951Z,9.719327
2022-12-26T01:49:24.931Z,9.719197
2022-12-26T01:50:24.941Z,9.719407
2022-12-26T01:51:24.924Z,9.719425
2022-12-26T01:52:24.936Z,9.719286
2022-12-26T01:53:24.904Z,9.719469
2022-12-26T01:54:39.424Z,9.719233
2022-12-26T01:55:25.902Z,9.719080
2022-12-26T01:56:24.896Z,9.718787
2022-12-26T01:57:24.873Z,9.719368
2022-12-26T01:58:24.856Z,9.719429
2022-12-26T01:59:24.844Z,9.719666
2022-12-26T02:00:24.832Z,9.719901
2022-12-26T02:01:24.899Z,9.718989
2022-12-26T02:02:24.896Z,9.718795
2022-12-26T02:03:24.855Z,9.719190
2022-12-26T02:04:24.792Z,9.719381
2022-12-26T02:05:24.788Z,9.719355
2022-12-26T02:06:25.799Z,9.719318
2022-12-26T02:07:24.767Z,9.718854
2022-12-26T02:08:24.775Z,9.718969
2022-12-26T02:09:24.743Z,9.719094
2022-12-26T02:10:24.736Z,9.719271
2022-12-26T02:11:24.798Z,9.719162
2022-12-26T02:12:34.892Z,9.718983
2022-12-26T02:13:25.708Z,9.719162
2022-12-26T02:14:24.701Z,9.718975
2022-12-26T02:15:24.693Z,9.719339
2022-12-26T02:16:24.711Z,9.719016
2022-12-26T02:17:24.694Z,9.719137
2022-12-26T02:18:24.663Z,9.718911
2022-12-26T02:19:24.663Z,9.719103
2022-12-26T02:20:24.665Z,9.719018
2022-12-26T02:21:24.638Z,9.719173
2022-12-26T02:22:24.642Z,9.719150
2022-12-26T02:23:24.633Z,9.719120
2022-12-26T02:24:24.605Z,9.719032
2022-12-26T02:25:24.590Z,9.719095
2022-12-26T02:26:24.578Z,9.718990
2022-12-26T02:27:24.587Z,9.718918
2022-12-26T02:28:24.559Z,9.718774
2022-12-26T02:29:24.557Z,9.718905
2022-12-26T02:30:24.537Z,9.719002
2022-12-26T02:31:24.560Z,9.719095
2022-12-26T02:32:24.525Z,9.719114
2022-12-26T02:33:24.514Z,9.719028
2022-12-26T02:34:24.509Z,9.719085
2022-12-26T02:35:24.502Z,9.719013
2022-12-26T02:36:24.475Z,9.719218
2022-12-26T02:37:24.484Z,9.719233
2022-12-26T02:38:24.493Z,9.719354
2022-12-26T02:39:44.203Z,9.719203
2022-12-26T02:40:25.453Z,9.719293
2022-12-26T02:41:24.429Z,9.719168
2022-12-26T02:42:24.409Z,9.719250
2022-12-26T02:43:24.426Z,9.719178
2022-12-26T02:44:24.404Z,9.719005
2022-12-26T02:45:24.395Z,9.719129
2022-12-26T02:46:24.458Z,9.719195
2022-12-26T02:47:24.403Z,9.719081
2022-12-26T02:48:24.398Z,9.719175
2022-12-26T02:49:24.363Z,9.719216
2022-12-26T02:50:24.345Z,9.719102
2022-12-26T02:51:24.325Z,9.719133
2022-12-26T02:52:24.352Z,9.719198
2022-12-26T02:53:24.336Z,9.719080
2022-12-26T02:54:24.336Z,9.718996
2022-12-26T02:55:24.410Z,9.719007
2022-12-26T02:56:24.297Z,9.719122
2022-12-26T02:57:24.289Z,9.719281
2022-12-26T02:58:24.274Z,9.719196
2022-12-26T02:59:54.105Z,9.719256
2022-12-26T03:00:25.262Z,9.719177
2022-12-26T03:01:24.281Z,9.719225
2022-12-26T03:02:24.374Z,9.719109
2022-12-26T03:03:24.319Z,9.719152
2022-12-26T03:04:24.217Z,9.719116
2022-12-26T03:05:24.233Z,9.719126
2022-12-26T03:06:24.208Z,9.719183
2022-12-26T03:07:24.170Z,9.719166
2022-12-26T03:08:24.203Z,9.719032
2022-12-26T03:09:24.189Z,9.719131
2022-12-26T03:10:24.172Z,9.719132
2022-12-26T03:11:24.159Z,9.719365
2022-12-26T03:12:24.117Z,9.719093
2022-12-26T03:13:24.121Z,9.719127
2022-12-26T03:14:24.107Z,9.719136
2022-12-26T03:15:24.091Z,9.718956
2022-12-26T03:16:24.126Z,9.719138
2022-12-26T03:17:24.091Z,9.719690
2022-12-26T03:18:58.212Z,9.719509
2022-12-26T03:19:25.114Z,9.719328
2022-12-26T03:20:25.040Z,9.719203
2022-12-26T03:21:24.034Z,9.719229
2022-12-26T03:22:24.019Z,9.719182
2022-12-26T03:23:24.024Z,9.719294
2022-12-26T03:24:24.039Z,9.719271
2022-12-26T03:25:24.003Z,9.719299
2022-12-26T03:26:23.993Z,9.719235
2022-12-26T03:27:23.996Z,9.719125
2022-12-26T03:28:23.969Z,9.719132
2022-12-26T03:29:23.990Z,9.719196
2022-12-26T03:30:24.075Z,9.719019
2022-12-26T03:31:24.001Z,9.719030
2022-12-26T03:32:23.927Z,9.719070
2022-12-26T03:33:23.915Z,9.719255
2022-12-26T03:34:23.929Z,9.719261
2022-12-26T03:35:23.919Z,9.719102
2022-12-26T03:36:23.903Z,9.719140
2022-12-26T03:37:23.873Z,9.719116
2022-12-26T03:38:23.873Z,9.719189
2022-12-26T03:39:23.865Z,9.719177
2022-12-26T03:40:23.875Z,9.719213
2022-12-26T03:41:23.849Z,9.719182
2022-12-26T03:42:23.851Z,9.719180
2022-12-26T03:43:23.831Z,9.719144
2022-12-26T03:44:23.818Z,9.719160
2022-12-26T03:45:23.841Z,9.719170
2022-12-26T03:46:23.847Z,9.719205
2022-12-26T03:47:23.799Z,9.719218
2022-12-26T03:48:23.777Z,9.719211
2022-12-26T03:49:23.776Z,9.719164
2022-12-26T03:50:23.773Z,9.719184
2022-12-26T03:51:23.764Z,9.719177
2022-12-26T03:52:23.758Z,9.719095
2022-12-26T03:53:23.726Z,9.719117
2022-12-26T03:54:23.732Z,9.719126
2022-12-26T03:55:23.728Z,9.719115
2022-12-26T03:56:23.750Z,9.719159
2022-12-26T03:57:23.699Z,9.719174
2022-12-26T03:58:23.707Z,9.719078
2022-12-26T03:59:23.702Z,9.719105
2022-12-26T04:00:23.664Z,9.719169
2022-12-26T04:01:23.769Z,9.719157
2022-12-26T04:02:23.736Z,9.719146
2022-12-26T04:03:23.727Z,9.719126
2022-12-26T04:04:23.620Z,9.719071
2022-12-26T04:05:23.613Z,9.719109
2022-12-26T04:06:23.617Z,9.719211
2022-12-26T04:07:23.588Z,9.719172
2022-12-26T04:08:23.601Z,9.719142
2022-12-26T04:09:23.592Z,9.719238
2022-12-26T04:10:23.561Z,9.719172
2022-12-26T04:11:23.574Z,9.719187
2022-12-26T04:12:23.549Z,9.719183
2022-12-26T04:13:23.528Z,9.719197
2022-12-26T04:14:23.533Z,9.719143
2022-12-26T04:15:23.560Z,9.719285
2022-12-26T04:16:23.644Z,9.719184
2022-12-26T04:17:23.510Z,9.719067
2022-12-26T04:18:23.482Z,9.719056
2022-12-26T04:19:23.468Z,9.719110
2022-12-26T04:20:23.498Z,9.719130
2022-12-26T04:21:23.457Z,9.719177
2022-12-26T04:22:23.451Z,9.719266
2022-12-26T04:23:23.420Z,9.719215
2022-12-26T04:24:23.438Z,9.718938
2022-12-26T04:25:48.372Z,9.719229
2022-12-26T04:26:24.400Z,9.719237
2022-12-26T04:27:23.388Z,9.719184
2022-12-26T04:28:23.375Z,9.719193
2022-12-26T04:29:23.379Z,9.718968
2022-12-26T04:30:23.358Z,9.719176
2022-12-26T04:31:23.498Z,9.719245
2022-12-26T04:32:23.341Z,9.719144
2022-12-26T04:33:23.356Z,9.719113
2022-12-26T04:34:23.342Z,9.719031
2022-12-26T04:35:23.315Z,9.718950
2022-12-26T04:36:23.317Z,9.719254
2022-12-26T04:37:23.328Z,9.719308
2022-12-26T04:38:23.292Z,9.719201
2022-12-26T04:39:23.297Z,9.719199
2022-12-26T04:40:23.268Z,9.719296
2022-12-26T04:41:23.251Z,9.719181
2022-12-26T04:42:23.244Z,9.719155
2022-12-26T04:43:50.340Z,9.719013
2022-12-26T04:44:24.233Z,9.719052
2022-12-26T04:45:23.241Z,9.719148
2022-12-26T04:46:23.351Z,9.718919
2022-12-26T04:47:23.200Z,9.718838
2022-12-26T04:48:23.203Z,9.718801
2022-12-26T04:49:23.176Z,9.718947
2022-12-26T04:50:23.174Z,9.718977
2022-12-26T04:51:23.157Z,9.718947
2022-12-26T04:52:23.140Z,9.719001
2022-12-26T04:53:23.153Z,9.719253
2022-12-26T04:54:23.118Z,9.719428
2022-12-26T04:55:23.125Z,9.719251
2022-12-26T04:56:23.115Z,9.719189
2022-12-26T04:57:23.099Z,9.719245
2022-12-26T04:58:23.096Z,9.719088
2022-12-26T04:59:23.071Z,9.719216
2022-12-26T05:00:23.100Z,9.719092
2022-12-26T05:01:23.154Z,9.718910
2022-12-26T05:02:23.105Z,9.719085
2022-12-26T05:03:23.054Z,9.719193
2022-12-26T05:04:23.019Z,9.719024
2022-12-26T05:05:23.038Z,9.719195
2022-12-26T05:06:23.001Z,9.719125
2022-12-26T05:07:23.009Z,9.719188
2022-12-26T05:08:22.972Z,9.719305
2022-12-26T05:09:22.975Z,9.719232
2022-12-26T05:10:22.964Z,9.719111
2022-12-26T05:11:22.982Z,9.719236
2022-12-26T05:12:22.964Z,9.719294
2022-12-26T05:13:22.938Z,9.719333
2022-12-26T05:14:22.910Z,9.719113
2022-12-26T05:15:22.905Z,9.719090
2022-12-26T05:16:22.945Z,9.719131
2022-12-26T05:17:22.897Z,9.719238
2022-12-26T05:18:22.878Z,9.719241
2022-12-26T05:19:22.886Z,9.719272
2022-12-26T05:20:22.849Z,9.719172
2022-12-26T05:21:22.872Z,9.719274
2022-12-26T05:22:22.890Z,9.719297
2022-12-26T05:23:22.836Z,9.719274
2022-12-26T05:24:22.818Z,9.719170
2022-12-26T05:25:22.808Z,9.719420
2022-12-26T05:26:22.798Z,9.719357
2022-12-26T05:27:22.816Z,9.719337
2022-12-26T05:28:22.780Z,9.719296
2022-12-26T05:29:22.775Z,9.719316
2022-12-26T05:30:22.766Z,9.719301
2022-12-26T05:31:22.816Z,9.719374
2022-12-26T05:32:22.756Z,9.719343
2022-12-26T05:33:22.729Z,9.719381
2022-12-26T05:34:22.708Z,9.719217
2022-12-26T05:35:22.709Z,9.719227
2022-12-26T05:36:22.716Z,9.719204
2022-12-26T05:37:22.686Z,9.719124
2022-12-26T05:38:22.702Z,9.719234
2022-12-26T05:39:22.710Z,9.719059
2022-12-26T05:40:22.671Z,9.718855
2022-12-26T05:41:22.664Z,9.718672
2022-12-26T05:42:22.640Z,9.718857
2022-12-26T05:43:22.653Z,9.718835
2022-12-26T05:44:22.636Z,9.718835
2022-12-26T05:45:22.639Z,9.718890
2022-12-26T05:46:22.651Z,9.718786
2022-12-26T05:47:22.599Z,9.718771
2022-12-26T05:48:22.585Z,9.718840
2022-12-26T05:49:22.599Z,9.718830
2022-12-26T05:50:22.574Z,9.718735
2022-12-26T05:51:22.554Z,9.719217
2022-12-26T05:52:22.547Z,9.719078
2022-12-26T05:53:22.533Z,9.718986
2022-12-26T05:54:22.576Z,9.719066
2022-12-26T05:55:22.546Z,9.719073
2022-12-26T05:56:22.510Z,9.719113
2022-12-26T05:57:22.505Z,9.719169
2022-12-26T05:58:22.482Z,9.719141
2022-12-26T05:59:22.504Z,9.719162
2022-12-26T06:00:22.467Z,9.719007
2022-12-26T06:01:23.584Z,9.719021
2022-12-26T06:02:22.603Z,9.719075
2022-12-26T06:03:22.521Z,9.719110
2022-12-26T06:04:22.485Z,9.719121
2022-12-26T06:05:22.410Z,9.719037
2022-12-26T06:06:22.423Z,9.719112
2022-12-26T06:07:22.407Z,9.719052
2022-12-26T06:08:22.381Z,9.719078
2022-12-26T06:09:22.439Z,9.719082
2022-12-26T06:10:22.374Z,9.719039
2022-12-26T06:11:22.371Z,9.718978
2022-12-26T06:12:22.358Z,9.718963
2022-12-26T06:13:22.339Z,9.719031
2022-12-26T06:14:22.316Z,9.719141
2022-12-26T06:15:22.339Z,9.719085
2022-12-26T06:16:22.364Z,9.719089
2022-12-26T06:17:22.307Z,9.719048
2022-12-26T06:18:22.297Z,9.718983
2022-12-26T06:19:22.274Z,9.718979
2022-12-26T06:20:22.267Z,9.718939
2022-12-26T06:21:22.268Z,9.718941
2022-12-26T06:22:22.253Z,9.718999
2022-12-26T06:23:22.248Z,9.718957
2022-12-26T06:24:22.226Z,9.718958
2022-12-26T06:25:22.220Z,9.718874
2022-12-26T06:26:22.220Z,9.718898
2022-12-26T06:27:22.221Z,9.718582
2022-12-26T06:28:22.200Z,9.718477
2022-12-26T06:29:22.186Z,9.718782
2022-12-26T06:30:22.169Z,9.718649
2022-12-26T06:31:22.274Z,9.718952
2022-12-26T06:32:22.151Z,9.718847
2022-12-26T06:33:22.143Z,9.718638
2022-12-26T06:34:22.134Z,9.718533
2022-12-26T06:35:22.129Z,9.718820
2022-12-26T06:36:22.118Z,9.718781
2022-12-26T06:37:23.132Z,9.718782
2022-12-26T06:38:22.104Z,9.718884
2022-12-26T06:39:22.095Z,9.719000
2022-12-26T06:40:22.117Z,9.718847
2022-12-26T06:41:23.228Z,9.718971
2022-12-26T06:42:22.063Z,9.718996
2022-12-26T06:43:22.044Z,9.718966
2022-12-26T06:44:23.039Z,9.719036
2022-12-26T06:45:22.060Z,9.718983
2022-12-26T06:46:22.151Z,9.718994
2022-12-26T06:47:22.014Z,9.718979
2022-12-26T06:48:21.997Z,9.719078
2022-12-26T06:49:26.214Z,9.719087
2022-12-26T06:50:23.033Z,9.719080
2022-12-26T06:51:21.973Z,9.719062
2022-12-26T06:52:21.972Z,9.719066
2022-12-26T06:53:21.946Z,9.719086
2022-12-26T06:54:21.944Z,9.719063
2022-12-26T06:55:21.945Z,9.719147
2022-12-26T06:56:21.942Z,9.719203
2022-12-26T06:57:21.902Z,9.719119
2022-12-26T06:58:21.913Z,9.719145
2022-12-26T06:59:21.900Z,9.719046
2022-12-26T07:00:21.874Z,9.719116
2022-12-26T07:01:21.942Z,9.719107
2022-12-26T07:02:21.975Z,9.719111
2022-12-26T07:03:21.853Z,9.719243
2022-12-26T07:04:21.867Z,9.719157
2022-12-26T07:05:21.832Z,9.719238
2022-12-26T07:06:21.830Z,9.719263
2022-12-26T07:07:21.820Z,9.719156
2022-12-26T07:08:21.787Z,9.719242
2022-12-26T07:09:21.837Z,9.719247
2022-12-26T07:10:21.784Z,9.719314
2022-12-26T07:11:21.768Z,9.719306
2022-12-26T07:12:21.764Z,9.719297
2022-12-26T07:13:21.750Z,9.719206
2022-12-26T07:14:21.735Z,9.719206
2022-12-26T07:15:21.746Z,9.719184
2022-12-26T07:16:21.797Z,9.719094
2022-12-26T07:17:21.715Z,9.719256
2022-12-26T07:18:21.704Z,9.719177
2022-12-26T07:19:21.700Z,9.719133
2022-12-26T07:20:21.699Z,9.719173
2022-12-26T07:21:21.684Z,9.719173
2022-12-26T07:22:21.682Z,9.719213
2022-12-26T07:23:21.648Z,9.719248
2022-12-26T07:24:35.091Z,9.719300
2022-12-26T07:25:21.631Z,9.719263
2022-12-26T07:26:21.619Z,9.719234
2022-12-26T07:27:21.636Z,9.719205
2022-12-26T07:28:21.606Z,9.719365
2022-12-26T07:29:21.599Z,9.719040
2022-12-26T07:30:21.586Z,9.719189
2022-12-26T07:31:21.617Z,9.719151
2022-12-26T07:32:21.560Z,9.718964
2022-12-26T07:33:21.575Z,9.718916
2022-12-26T07:34:24.058Z,9.718887
2022-12-26T07:35:22.536Z,9.718985
2022-12-26T07:36:21.523Z,9.719076
2022-12-26T07:37:21.522Z,9.719143
2022-12-26T07:38:21.554Z,9.719292
2022-12-26T07:39:21.498Z,9.719275
2022-12-26T07:40:21.492Z,9.719189
2022-12-26T07:41:21.492Z,9.719122
2022-12-26T07:42:21.483Z,9.719247
2022-12-26T07:43:21.478Z,9.719182
2022-12-26T07:44:21.471Z,9.719110
2022-12-26T07:45:21.437Z,9.719251
2022-12-26T07:46:21.485Z,9.719175
2022-12-26T07:47:21.440Z,9.719211
2022-12-26T07:48:21.406Z,9.719233
2022-12-26T07:49:21.413Z,9.719012
2022-12-26T07:50:21.404Z,9.718954
2022-12-26T07:51:21.385Z,9.719050
2022-12-26T07:52:21.396Z,9.719118
2022-12-26T07:53:21.377Z,9.719129
2022-12-26T07:54:21.386Z,9.719174
2022-12-26T07:55:21.346Z,9.719107
2022-12-26T07:56:21.348Z,9.719317
2022-12-26T07:57:50.234Z,9.719473
2022-12-26T07:58:23.317Z,9.719707
2022-12-26T07:59:21.303Z,9.719618
2022-12-26T08:00:21.298Z,9.719380
2022-12-26T08:01:21.390Z,9.719406
2022-12-26T08:02:21.538Z,9.719247
2022-12-26T08:03:21.357Z,9.719232
2022-12-26T08:04:21.256Z,9.719184
2022-12-26T08:05:21.257Z,9.719229
2022-12-26T08:06:21.259Z,9.719304
2022-12-26T08:07:21.238Z,9.719543
2022-12-26T08:08:21.223Z,9.719360
2022-12-26T08:09:21.218Z,9.719401
2022-12-26T08:10:21.215Z,9.719739
2022-12-26T08:11:21.221Z,9.720119
2022-12-26T08:12:21.186Z,9.719329
2022-12-26T08:13:21.173Z,9.719297
2022-12-26T08:14:21.169Z,9.719190
2022-12-26T08:15:21.151Z,9.719434
2022-12-26T08:16:21.170Z,9.719348
2022-12-26T08:17:21.179Z,9.719419
2022-12-26T08:18:21.144Z,9.719271
2022-12-26T08:19:21.109Z,9.719254
2022-12-26T08:20:21.099Z,9.719277
2022-12-26T08:21:21.122Z,9.719151
2022-12-26T08:22:21.091Z,9.719165
2022-12-26T08:23:21.060Z,9.719267
2022-12-26T08:24:21.054Z,9.719206
2022-12-26T08:25:22.032Z,9.718948
2022-12-26T08:26:21.041Z,9.719016
2022-12-26T08:27:21.045Z,9.718999
2022-12-26T08:28:21.025Z,9.719194
2022-12-26T08:29:21.020Z,9.719232
2022-12-26T08:30:21.048Z,9.719248
2022-12-26T08:31:21.130Z,9.719242
2022-12-26T08:32:21.009Z,9.719283
2022-12-26T08:33:20.975Z,9.719271
2022-12-26T08:34:20.958Z,9.719118
2022-12-26T08:35:20.962Z,9.719153
2022-12-26T08:36:20.955Z,9.719193
2022-12-26T08:37:20.974Z,9.719335
2022-12-26T08:38:20.934Z,9.719195
2022-12-26T08:39:20.917Z,9.719258
2022-12-26T08:40:41.413Z,9.719161
2022-12-26T08:41:22.922Z,9.719253
2022-12-26T08:42:20.894Z,9.719103
2022-12-26T08:43:38.707Z,9.719245
2022-12-26T08:44:27.572Z,9.719268
2022-12-26T08:45:22.859Z,9.719328
2022-12-26T08:46:20.936Z,9.719310
2022-12-26T08:47:20.857Z,9.719370
2022-12-26T08:48:20.832Z,9.719308
2022-12-26T08:49:20.836Z,9.719417
2022-12-26T08:50:20.811Z,9.719135
2022-12-26T08:51:20.820Z,9.719075
2022-12-26T08:52:20.809Z,9.719172
2022-12-26T08:53:20.790Z,9.719199
2022-12-26T08:54:20.767Z,9.719180
2022-12-26T08:55:20.768Z,9.719226
2022-12-26T08:56:20.822Z,9.719420
2022-12-26T08:57:20.747Z,9.719455
2022-12-26T08:58:20.800Z,9.719312
2022-12-26T08:59:20.734Z,9.719409
2022-12-26T09:00:20.718Z,9.719447
2022-12-26T09:01:20.792Z,9.719373
2022-12-26T09:02:20.937Z,9.719221
2022-12-26T09:03:20.743Z,9.719306
2022-12-26T09:04:20.677Z,9.719528
2022-12-26T09:05:20.657Z,9.719485
2022-12-26T09:06:20.649Z,9.719390
2022-12-26T09:07:20.723Z,9.719241
2022-12-26T09:08:20.660Z,9.719357
2022-12-26T09:09:20.656Z,9.719351
2022-12-26T09:10:20.622Z,9.719192
2022-12-26T09:11:20.605Z,9.719116
2022-12-26T09:12:20.588Z,9.719486
2022-12-26T09:13:21.401Z,9.719262
2022-12-26T09:14:20.605Z,9.719063
2022-12-26T09:15:20.554Z,9.719261
2022-12-26T09:16:20.621Z,9.719260
2022-12-26T09:17:20.592Z,9.719318
2022-12-26T09:18:20.552Z,9.719352
2022-12-26T09:19:20.553Z,9.719392
2022-12-26T09:20:20.518Z,9.719357
2022-12-26T09:21:20.524Z,9.719509
2022-12-26T09:22:20.486Z,9.719378
2022-12-26T09:23:20.486Z,9.719254
2022-12-26T09:24:20.469Z,9.719142
2022-12-26T09:25:20.466Z,9.719172
2022-12-26T09:26:20.523Z,9.719285
2022-12-26T09:27:20.453Z,9.719188
2022-12-26T09:28:20.430Z,9.719191
2022-12-26T09:29:20.418Z,9.719183
2022-12-26T09:30:20.413Z,9.719203
2022-12-26T09:31:20.468Z,9.719246
2022-12-26T09:32:20.403Z,9.719288
2022-12-26T09:33:20.391Z,9.719193
2022-12-26T09:34:20.376Z,9.719186
2022-12-26T09:35:20.402Z,9.719046
2022-12-26T09:36:20.437Z,9.719105
2022-12-26T09:37:20.391Z,9.719082
2022-12-26T09:38:20.349Z,9.719102
2022-12-26T09:39:20.338Z,9.719191
2022-12-26T09:40:20.317Z,9.719108
2022-12-26T09:41:20.322Z,9.719152
2022-12-26T09:42:20.308Z,9.719155
2022-12-26T09:43:20.296Z,9.719167
2022-12-26T09:44:20.302Z,9.719281
2022-12-26T09:45:20.275Z,9.719212
2022-12-26T09:46:20.313Z,9.719180
2022-12-26T09:47:20.270Z,9.719187
2022-12-26T09:48:20.249Z,9.719206
2022-12-26T09:49:20.246Z,9.719339
2022-12-26T09:50:20.238Z,9.719194
2022-12-26T09:51:20.216Z,9.719137
2022-12-26T09:52:20.274Z,9.719107
2022-12-26T09:53:20.201Z,9.719271
2022-12-26T09:54:20.196Z,9.719106
2022-12-26T09:55:20.183Z,9.719186
2022-12-26T09:57:01.228Z,9.719380
2022-12-26T09:57:22.200Z,9.719276
2022-12-26T09:58:20.141Z,9.719366
2022-12-26T09:59:20.137Z,9.719278
2022-12-26T10:00:20.134Z,9.719520
2022-12-26T10:01:20.235Z,9.719234
2022-12-26T10:02:20.273Z,9.719334
2022-12-26T10:03:20.127Z,9.719578
2022-12-26T10:04:23.586Z,9.719332
2022-12-26T10:05:22.091Z,9.719320
2022-12-26T10:06:20.074Z,9.719071
2022-12-26T10:07:20.060Z,9.719179
2022-12-26T10:08:20.062Z,9.719212
2022-12-26T10:09:20.045Z,9.719397
2022-12-26T10:10:20.051Z,9.719181
2022-12-26T10:11:20.034Z,9.719285
2022-12-26T10:12:20.020Z,9.719177
2022-12-26T10:13:20.007Z,9.719219
2022-12-26T10:14:22.005Z,9.719120
2022-12-26T10:15:20.980Z,9.719203
2022-12-26T10:16:20.034Z,9.719212
2022-12-26T10:17:19.963Z,9.719204
2022-12-26T10:18:19.953Z,9.719135
2022-12-26T10:19:19.939Z,9.719172
2022-12-26T10:20:19.933Z,9.719118
2022-12-26T10:21:19.936Z,9.719088
2022-12-26T10:22:19.917Z,9.719118
2022-12-26T10:23:19.933Z,9.719149
2022-12-26T10:24:19.895Z,9.719051
2022-12-26T10:25:19.887Z,9.719029
2022-12-26T10:26:19.885Z,9.719076
2022-12-26T10:27:19.862Z,9.719067
2022-12-26T10:28:19.881Z,9.719087
2022-12-26T10:29:19.848Z,9.719092
2022-12-26T10:30:19.874Z,9.719085
2022-12-26T10:31:19.863Z,9.719090
2022-12-26T10:32:25.969Z,9.719119
2022-12-26T10:33:21.821Z,9.719119
2022-12-26T10:34:19.820Z,9.719121
2022-12-26T10:35:19.811Z,9.719093
2022-12-26T10:36:19.788Z,9.719113
2022-12-26T10:37:19.777Z,9.719106
2022-12-26T10:38:25.610Z,9.719108
2022-12-26T10:39:20.789Z,9.719099
2022-12-26T10:40:19.852Z,9.719110
2022-12-26T10:41:19.738Z,9.719091
2022-12-26T10:42:19.723Z,9.719073
2022-12-26T10:43:19.706Z,9.719090
2022-12-26T10:44:25.573Z,9.719100
2022-12-26T10:45:21.725Z,9.719070
2022-12-26T10:46:19.705Z,9.719080
2022-12-26T10:47:19.660Z,9.719118
2022-12-26T10:48:20.650Z,9.719208
2022-12-26T10:49:19.653Z,9.719226
2022-12-26T10:50:25.400Z,9.719131
2022-12-26T10:51:21.632Z,9.719166
2022-12-26T10:52:19.645Z,9.719132
2022-12-26T10:53:19.627Z,9.719174
2022-12-26T10:54:19.602Z,9.719135
2022-12-26T10:55:29.271Z,9.719164
2022-12-26T10:56:20.589Z,9.719123
2022-12-26T10:57:19.579Z,9.719174
2022-12-26T10:58:19.555Z,9.719189
2022-12-26T10:59:19.579Z,9.719164
2022-12-26T11:00:19.638Z,9.719121
2022-12-26T11:01:19.660Z,9.719134
2022-12-26T11:02:19.694Z,9.719210
2022-12-26T11:03:19.667Z,9.719159
2022-12-26T11:04:31.431Z,9.719163
2022-12-26T11:05:40.260Z,9.719165
2022-12-26T11:06:21.499Z,9.719163
2022-12-26T11:07:19.485Z,9.719152
2022-12-26T11:08:19.500Z,9.719154
2022-12-26T11:09:19.456Z,9.719145
2022-12-26T11:10:19.442Z,9.719218
2022-12-26T11:11:19.428Z,9.719159
2022-12-26T11:12:19.428Z,9.719297
2022-12-26T11:13:19.431Z,9.719253
2022-12-26T11:14:19.414Z,9.719163
2022-12-26T11:15:19.393Z,9.719179
2022-12-26T11:16:19.402Z,9.719233
2022-12-26T11:17:19.372Z,9.719262
2022-12-26T11:18:19.390Z,9.719557
2022-12-26T11:19:19.356Z,9.719088
2022-12-26T11:20:19.346Z,9.719419
2022-12-26T11:21:19.353Z,9.719426
2022-12-26T11:22:19.317Z,9.719225
2022-12-26T11:23:19.323Z,9.719025
2022-12-26T11:24:19.316Z,9.719007
2022-12-26T11:25:19.305Z,9.719193
2022-12-26T11:26:19.302Z,9.719095
2022-12-26T11:27:19.282Z,9.719203
2022-12-26T11:28:19.271Z,9.718906
2022-12-26T11:29:19.256Z,9.718985
2022-12-26T11:30:19.248Z,9.718943
2022-12-26T11:31:19.396Z,9.719079
2022-12-26T11:32:19.234Z,9.719079
2022-12-26T11:33:19.230Z,9.719140
2022-12-26T11:34:19.207Z,9.719058
2022-12-26T11:35:19.212Z,9.719089
2022-12-26T11:36:19.202Z,9.718974
2022-12-26T11:37:19.179Z,9.718924
2022-12-26T11:38:19.182Z,9.719153
2022-12-26T11:39:19.161Z,9.718990
2022-12-26T11:40:19.169Z,9.719166
2022-12-26T11:41:19.138Z,9.719129
2022-12-26T11:42:19.146Z,9.719265
2022-12-26T11:43:19.111Z,9.719102
2022-12-26T11:44:19.115Z,9.719163